createdAt,value
2022-11-15T00:03:21.188Z,123
2022-11-15T00:06:26.475Z,113
2022-11-15T00:09:31.785Z,116
2022-11-15T00:12:37.118Z,107
2022-11-15T00:16:19.488Z,132
2022-11-15T00:19:24.782Z,100
2022-11-15T00:22:30.127Z,114
2022-11-15T00:25:35.399Z,105
2022-11-15T00:30:31.890Z,105
2022-11-15T00:33:37.224Z,115
2022-11-15T00:37:19.603Z,101
2022-11-15T00:40:24.893Z,100
2022-11-15T00:45:21.374Z,142
2022-11-15T00:48:55.546Z,96
2022-11-15T00:51:23.842Z,100
2022-11-15T00:54:29.134Z,113
2022-11-15T00:57:34.440Z,108
2022-11-15T01:00:39.774Z,120
2022-11-15T01:04:22.098Z,115
2022-11-15T01:07:27.489Z,97
2022-11-15T01:10:32.739Z,111
2022-11-15T01:13:38.066Z,158
2022-11-15T01:17:20.394Z,119
2022-11-15T01:20:25.709Z,104
2022-11-15T01:23:31.475Z,95
2022-11-15T01:26:36.381Z,107
2022-11-15T01:29:41.631Z,116
2022-11-15T01:33:24.027Z,105
2022-11-15T01:36:29.338Z,130
2022-11-15T01:39:34.623Z,131
2022-11-15T01:42:39.926Z,116
2022-11-15T01:46:22.296Z,115
2022-11-15T01:48:50.569Z,107
2022-11-15T01:53:38.880Z,127
2022-11-15T01:57:21.245Z,125
2022-11-15T02:00:26.525Z,106
2022-11-15T02:03:32.126Z,101
2022-11-15T02:06:37.174Z,118
2022-11-15T02:10:19.566Z,90
2022-11-15T02:13:24.868Z,93
2022-11-15T02:15:53.095Z,122
2022-11-15T02:20:49.617Z,147
2022-11-15T02:23:17.830Z,104
2022-11-15T02:25:46.094Z,120
2022-11-15T02:29:28.443Z,124
2022-11-15T02:32:33.767Z,102
2022-11-15T02:35:39.086Z,128
2022-11-15T02:40:35.562Z,115
2022-11-15T02:44:17.960Z,125
2022-11-15T02:47:23.273Z,131
2022-11-15T02:49:51.502Z,108
2022-11-15T02:52:19.760Z,105
2022-11-15T02:54:47.984Z,136
2022-11-15T02:57:16.223Z,122
2022-11-15T02:59:44.489Z,115
2022-11-15T03:03:18.662Z,128
2022-11-15T03:06:23.966Z,121
2022-11-15T03:09:29.285Z,125
2022-11-15T03:12:34.661Z,188
2022-11-15T03:15:39.901Z,126
2022-11-15T03:19:22.282Z,165
2022-11-15T03:22:27.594Z,103
2022-11-15T03:25:32.926Z,103
2022-11-15T03:28:38.215Z,95
2022-11-15T03:32:20.564Z,135
2022-11-15T03:35:25.888Z,146
2022-11-15T03:38:31.302Z,88
2022-11-15T03:41:36.503Z,98
2022-11-15T03:44:41.808Z,97
2022-11-15T03:48:24.167Z,134
2022-11-15T03:51:29.529Z,93
2022-11-15T03:54:34.816Z,102
2022-11-15T03:57:40.110Z,111
2022-11-15T04:02:28.432Z,148
2022-11-15T04:07:25.012Z,108
2022-11-15T04:10:30.227Z,117
2022-11-15T04:13:35.520Z,102
2022-11-15T04:16:43.827Z,132
2022-11-15T04:19:09.080Z,102
2022-11-15T04:21:37.315Z,111
2022-11-15T04:24:42.641Z,107
2022-11-15T04:28:24.995Z,95
2022-11-15T04:31:30.308Z,122
2022-11-15T04:34:35.649Z,107
2022-11-15T04:37:43.918Z,121
2022-11-15T04:41:23.316Z,114
2022-11-15T04:44:28.627Z,111
2022-11-15T04:47:33.941Z,161
2022-11-15T04:50:39.227Z,127
2022-11-15T04:54:21.600Z,133
2022-11-15T04:57:26.941Z,120
2022-11-15T05:02:15.229Z,106
2022-11-15T05:05:20.556Z,125
2022-11-15T05:08:25.815Z,96
2022-11-15T05:11:31.223Z,104
2022-11-15T05:16:27.668Z,114
2022-11-15T05:19:32.969Z,121
2022-11-15T05:22:38.280Z,105
2022-11-15T05:26:20.631Z,113
2022-11-15T05:30:40.064Z,111
2022-11-15T05:35:36.541Z,154
2022-11-15T05:38:41.880Z,119
2022-11-15T05:42:24.236Z,133
2022-11-15T05:45:29.530Z,134
2022-11-15T05:48:34.870Z,110
2022-11-15T05:51:40.153Z,128
2022-11-15T05:55:22.544Z,111
2022-11-15T05:57:50.791Z,173
2022-11-15T06:00:19.044Z,108
2022-11-15T06:02:47.264Z,125
2022-11-15T06:05:15.543Z,145
2022-11-15T06:07:43.751Z,110
2022-11-15T06:11:17.989Z,123
2022-11-15T06:14:23.278Z,131
2022-11-15T06:17:28.589Z,116
2022-11-15T06:20:33.850Z,125
2022-11-15T06:25:30.359Z,105
2022-11-15T06:30:26.885Z,106
2022-11-15T06:33:32.463Z,108
2022-11-15T06:36:37.484Z,139
2022-11-15T06:40:19.879Z,165
2022-11-15T06:44:39.282Z,105
2022-11-15T06:49:35.791Z,120
2022-11-15T06:52:04.039Z,110
2022-11-15T06:55:46.405Z,153
2022-11-15T06:58:51.718Z,115
2022-11-15T07:01:57.052Z,112
2022-11-15T07:04:25.270Z,148
2022-11-15T07:07:30.672Z,116
2022-11-15T07:10:35.890Z,170
2022-11-15T07:13:33.407Z,121
2022-11-15T07:16:38.341Z,134
2022-11-15T07:20:20.674Z,129
2022-11-15T07:23:26.020Z,130
2022-11-15T07:26:31.295Z,125
2022-11-15T07:29:36.591Z,145
2022-11-15T07:34:33.131Z,130
2022-11-15T07:37:38.460Z,139
2022-11-15T07:41:20.803Z,111
2022-11-15T07:44:26.099Z,145
2022-11-15T07:47:31.416Z,122
2022-11-15T07:50:36.720Z,106
2022-11-15T07:53:42.046Z,156
2022-11-15T07:57:24.385Z,144
2022-11-15T08:00:29.744Z,138
2022-11-15T08:03:35.368Z,136
2022-11-15T08:06:40.321Z,135
2022-11-15T08:10:22.694Z,158
2022-11-15T08:13:19.873Z,123
2022-11-15T08:16:25.128Z,143
2022-11-15T08:19:30.455Z,123
2022-11-15T08:22:35.721Z,137
2022-11-15T08:25:41.077Z,138
2022-11-15T08:29:23.433Z,158
2022-11-15T08:32:28.752Z,125
2022-11-15T08:35:34.037Z,158
2022-11-15T08:38:39.385Z,187
2022-11-15T08:41:44.689Z,120
2022-11-15T08:45:27.033Z,147
2022-11-15T08:48:32.706Z,140
2022-11-15T08:51:37.689Z,129
2022-11-15T08:54:42.976Z,118
2022-11-15T08:58:25.319Z,123
2022-11-15T09:01:30.684Z,122
2022-11-15T09:04:35.967Z,126
2022-11-15T09:07:41.244Z,150
2022-11-15T09:11:23.634Z,157
2022-11-15T09:14:20.736Z,149
2022-11-15T09:17:26.076Z,164
2022-11-15T09:20:31.356Z,135
2022-11-15T09:23:36.685Z,116
2022-11-15T09:26:41.977Z,130
2022-11-15T09:30:24.358Z,145
2022-11-15T09:33:29.930Z,127
2022-11-15T09:36:35.011Z,120
2022-11-15T09:39:40.293Z,151
2022-11-15T09:43:22.655Z,104
2022-11-15T09:46:27.981Z,123
2022-11-15T09:49:33.252Z,154
2022-11-15T09:52:38.607Z,123
2022-11-15T09:56:20.976Z,174
2022-11-15T09:59:26.276Z,128
2022-11-15T10:02:31.580Z,175
2022-11-15T10:07:28.125Z,130
2022-11-15T10:10:33.389Z,132
2022-11-15T10:13:30.488Z,127
2022-11-15T10:16:35.826Z,152
2022-11-15T10:19:41.130Z,129
2022-11-15T10:23:23.490Z,155
2022-11-15T10:26:28.801Z,134
2022-11-15T10:29:34.095Z,135
2022-11-15T10:32:39.409Z,118
2022-11-15T10:36:21.804Z,109
2022-11-15T10:39:27.131Z,140
2022-11-15T10:44:23.593Z,141
2022-11-15T10:47:28.948Z,129
2022-11-15T10:50:34.202Z,102
2022-11-15T10:53:39.548Z,154
2022-11-15T10:57:21.877Z,137
2022-11-15T11:00:27.227Z,118
2022-11-15T11:03:32.510Z,148
2022-11-15T11:06:37.838Z,124
2022-11-15T11:10:44.491Z,107
2022-11-15T11:13:25.521Z,109
2022-11-15T11:16:22.629Z,118
2022-11-15T11:19:27.947Z,88
2022-11-15T11:22:33.232Z,113
2022-11-15T11:25:38.539Z,76
2022-11-15T11:30:35.023Z,92
2022-11-15T11:33:40.349Z,70
2022-11-15T11:37:22.705Z,75
2022-11-15T11:40:28.025Z,61
2022-11-15T11:43:33.338Z,80
2022-11-15T11:46:38.670Z,84
2022-11-15T11:50:21.000Z,103
2022-11-15T11:53:26.329Z,54
2022-11-15T11:56:31.647Z,96
2022-11-15T11:59:36.948Z,71
2022-11-15T12:02:42.348Z,91
2022-11-15T12:06:24.622Z,60
2022-11-15T12:09:29.933Z,79
2022-11-15T12:12:35.262Z,66
2022-11-15T12:15:32.381Z,52
2022-11-15T12:20:28.855Z,34
2022-11-15T12:23:34.169Z,36
2022-11-15T12:26:39.489Z,29
2022-11-15T12:33:27.418Z,36
2022-11-15T12:36:32.465Z,36
2022-11-15T12:39:37.788Z,61
2022-11-15T12:43:20.156Z,51
2022-11-15T12:46:25.464Z,62
2022-11-15T12:49:30.775Z,56
2022-11-15T12:52:36.079Z,27
2022-11-15T12:55:41.414Z,30
2022-11-15T12:59:23.761Z,35
2022-11-15T13:02:29.073Z,46
2022-11-15T13:05:34.410Z,47
2022-11-15T13:08:39.694Z,31
2022-11-15T13:12:22.080Z,41
2022-11-15T13:15:27.608Z,34
2022-11-15T13:18:32.908Z,34
2022-11-15T13:23:29.188Z,50
2022-11-15T13:26:18.117Z,36
2022-11-15T13:28:46.359Z,40
2022-11-15T13:31:14.615Z,56
2022-11-15T13:33:42.838Z,46
2022-11-15T13:38:39.363Z,48
2022-11-15T13:43:35.847Z,52
2022-11-15T13:46:04.107Z,40
2022-11-15T13:49:46.477Z,48
2022-11-15T13:52:51.757Z,57
2022-11-15T13:55:57.081Z,34
2022-11-15T13:58:25.283Z,42
2022-11-15T14:01:30.649Z,51
2022-11-15T14:04:35.927Z,47
2022-11-15T14:07:44.396Z,50
2022-11-15T14:10:46.549Z,69
2022-11-15T14:13:14.800Z,39
2022-11-15T14:15:43.068Z,60
2022-11-15T14:18:11.310Z,59
2022-11-15T14:22:30.718Z,42
2022-11-15T14:25:27.862Z,97
2022-11-15T14:28:33.366Z,58
2022-11-15T14:33:29.666Z,74
2022-11-15T14:37:49.108Z,80
2022-11-15T14:40:17.352Z,67
2022-11-15T14:42:45.578Z,60
2022-11-15T14:45:13.828Z,51
2022-11-15T14:47:42.092Z,100
2022-11-15T14:52:38.577Z,89
2022-11-15T14:57:35.056Z,46
2022-11-15T15:00:03.299Z,57
2022-11-15T15:03:45.668Z,65
2022-11-15T15:06:51.066Z,46
2022-11-15T15:10:02.839Z,68
2022-11-15T15:12:24.551Z,42
2022-11-15T15:15:29.866Z,95
2022-11-15T15:18:35.142Z,70
2022-11-15T15:21:40.469Z,82
2022-11-15T15:24:45.795Z,52
2022-11-15T15:27:14.017Z,71
2022-11-15T15:30:56.399Z,74
2022-11-15T15:33:24.658Z,99
2022-11-15T15:36:21.796Z,79
2022-11-15T15:39:27.073Z,106
2022-11-15T15:42:32.402Z,56
2022-11-15T15:48:05.955Z,61
2022-11-15T15:51:48.303Z,52
2022-11-15T15:54:16.547Z,51
2022-11-15T15:56:44.817Z,71
2022-11-15T15:59:13.072Z,85
2022-11-15T16:01:41.407Z,78
2022-11-15T16:05:23.659Z,66
2022-11-15T16:08:34.863Z,43
2022-11-15T16:11:34.280Z,73
2022-11-15T16:14:39.619Z,58
2022-11-15T16:18:21.999Z,75
2022-11-15T16:21:27.298Z,62
2022-11-15T16:24:32.602Z,107
2022-11-15T16:27:37.916Z,91
2022-11-15T16:31:20.269Z,69
2022-11-15T16:34:28.719Z,96
2022-11-15T16:37:22.704Z,64
2022-11-15T16:40:28.053Z,87
2022-11-15T16:43:33.332Z,89
2022-11-15T16:46:38.661Z,66
2022-11-15T16:50:21.012Z,102
2022-11-15T16:53:26.310Z,65
2022-11-15T16:56:31.612Z,95
2022-11-15T16:59:38.391Z,76
2022-11-15T17:02:42.273Z,84
2022-11-15T17:06:40.140Z,166
2022-11-15T17:09:29.922Z,95
2022-11-15T17:12:35.238Z,108
2022-11-15T17:17:31.727Z,100
2022-11-15T17:20:37.036Z,131
2022-11-15T17:23:42.348Z,136
2022-11-15T17:27:24.733Z,155
2022-11-15T17:30:30.048Z,106
2022-11-15T17:33:35.324Z,150
2022-11-15T17:38:23.625Z,122
2022-11-15T17:41:28.973Z,111
2022-11-15T17:44:34.281Z,133
2022-11-15T17:47:39.596Z,142
2022-11-15T17:51:21.956Z,102
2022-11-15T17:54:27.269Z,115
2022-11-15T17:57:32.552Z,237
2022-11-15T18:00:37.968Z,174
2022-11-15T18:04:20.274Z,155
2022-11-15T18:07:25.669Z,137
2022-11-15T18:10:30.863Z,163
2022-11-15T18:13:36.180Z,150
2022-11-15T18:16:41.494Z,114
2022-11-15T18:20:27.895Z,134
2022-11-15T18:23:29.198Z,150
2022-11-15T18:26:34.491Z,162
2022-11-15T18:29:39.794Z,156
2022-11-15T18:33:22.197Z,134
2022-11-15T18:36:27.464Z,142
2022-11-15T18:39:24.593Z,143
2022-11-15T18:42:29.862Z,114
2022-11-15T18:45:35.202Z,88
2022-11-15T18:48:40.517Z,106
2022-11-15T18:52:22.885Z,132
2022-11-15T18:55:28.217Z,142
2022-11-15T18:58:33.504Z,100
2022-11-15T19:01:38.819Z,112
2022-11-15T19:05:21.167Z,135
2022-11-15T19:08:26.868Z,96
2022-11-15T19:11:31.783Z,99
2022-11-15T19:14:37.113Z,142
2022-11-15T19:17:42.451Z,108
2022-11-15T19:21:24.794Z,127
2022-11-15T19:24:30.078Z,105
2022-11-15T19:27:37.992Z,101
2022-11-15T19:30:40.713Z,153
2022-11-15T19:34:23.070Z,100
2022-11-15T19:37:28.422Z,123
2022-11-15T19:40:25.494Z,123
2022-11-15T19:43:31.072Z,148
2022-11-15T19:46:36.139Z,152
2022-11-15T19:49:41.459Z,199
2022-11-15T19:53:23.787Z,116
2022-11-15T19:56:29.141Z,98
2022-11-15T19:59:34.465Z,112
2022-11-15T20:02:39.731Z,111
2022-11-15T20:06:22.117Z,110
2022-11-15T20:09:27.437Z,137
2022-11-15T20:12:32.732Z,97
2022-11-15T20:15:38.036Z,105
2022-11-15T20:19:20.406Z,81
2022-11-15T20:22:25.712Z,102
2022-11-15T20:25:31.031Z,95
2022-11-15T20:28:36.585Z,101
2022-11-15T20:31:41.668Z,92
2022-11-15T20:35:24.014Z,75
2022-11-15T20:37:52.238Z,110
2022-11-15T20:40:12.319Z,75
2022-11-15T20:42:40.563Z,68
2022-11-15T20:46:22.950Z,64
2022-11-15T20:49:28.226Z,90
2022-11-15T20:52:33.553Z,66
2022-11-15T20:55:38.882Z,81
2022-11-15T20:59:21.231Z,79
2022-11-15T21:02:26.565Z,66
2022-11-15T21:05:31.887Z,59
2022-11-15T21:08:37.171Z,131
2022-11-15T21:12:19.500Z,125
2022-11-15T21:15:24.836Z,153
2022-11-15T21:18:30.287Z,89
2022-11-15T21:21:35.455Z,113
2022-11-15T21:24:40.781Z,108
2022-11-15T21:28:23.199Z,103
2022-11-15T21:31:28.468Z,120
2022-11-15T21:34:33.776Z,119
2022-11-15T21:39:29.257Z,104
2022-11-15T21:42:27.384Z,141
2022-11-15T21:45:32.705Z,119
2022-11-15T21:48:38.008Z,111
2022-11-15T21:52:20.373Z,133
2022-11-15T21:55:25.662Z,134
2022-11-15T21:58:31.300Z,136
2022-11-15T22:01:36.365Z,162
2022-11-15T22:05:18.743Z,196
2022-11-15T22:07:46.921Z,200
2022-11-15T22:10:15.179Z,191
2022-11-15T22:12:43.420Z,188
2022-11-15T22:15:11.728Z,161
2022-11-15T22:17:39.896Z,165
2022-11-15T22:21:22.317Z,149
2022-11-15T22:24:27.600Z,151
2022-11-15T22:27:32.909Z,162
2022-11-15T22:30:38.239Z,143
2022-11-15T22:34:20.541Z,155
2022-11-15T22:37:25.882Z,107
2022-11-15T22:40:23.009Z,145
2022-11-15T22:43:28.333Z,144
2022-11-15T22:46:33.614Z,84
2022-11-15T22:49:38.927Z,107
2022-11-15T22:53:21.292Z,95
2022-11-15T22:56:26.625Z,96
2022-11-15T22:59:31.931Z,104
2022-11-15T23:04:28.469Z,90
2022-11-15T23:07:33.791Z,100
2022-11-15T23:10:39.053Z,91
2022-11-15T23:14:21.419Z,93
2022-11-15T23:17:26.716Z,118
2022-11-15T23:20:42.806Z,111
2022-11-15T23:23:37.400Z,130
2022-11-15T23:26:42.621Z,112
2022-11-15T23:30:25.014Z,90
2022-11-15T23:33:30.379Z,97
2022-11-15T23:36:35.644Z,114
2022-11-15T23:39:32.766Z,123
2022-11-15T23:42:38.067Z,115
2022-11-15T23:46:20.448Z,121
2022-11-15T23:49:25.763Z,115
2022-11-15T23:52:31.041Z,111
2022-11-15T23:55:36.347Z,105
2022-11-15T23:58:41.758Z,107
